Peary, Virginia
Current Conditions -  °F | °C
As of 3:35 AM on Thursday 18 Dec 2014 (Local Time) from KW75 Reporting Station
Clear Clear  
Wind Chill: 31°   Ceiling: Unl
Heat Index: 37°   Visibility: 10mi
Dew Point: 27°   Wind: 9mph
Humidity: 65%   Direction: 340°NNW
Pressure: 30.1"   Gusts: NA
Location:  37.3757°N, 76.2979°W
Report Text: KW75 180835Z AUTO 34008KT 10SM CLR 03/M03 A3010 RMK AO1 T00301030
Loading
Personal Weather Stations






























Interactive Weather Map New forecast layout! Learn more

10-Day Weather Forecast

Advertisements
Track Severe Weather on mobile